Time;durP1;ratioP1;P1;durP2;ratioP2;P2;SDS_P1;SDS_P2;PMS_P1;PMS_P2;Temp;Humidity;BMP_temperature;BMP_pressure;BME280_temperature;BME280_humidity;BME280_pressure;Samples;Min_cycle;Max_cycle;Signal;HPM_P1;HPM_P2
2022/04/17 00:01:02;;;;;;;15.55;7.97;;;;;;;7.24;72.39;102669.88;4959306;28;20034;-79
2022/04/17 00:03:29;;;;;;;14.43;8.70;;;;;;;7.32;71.13;102672.34;4942894;28;20038;-78
2022/04/17 00:05:54;;;;;;;13.43;7.78;;;;;;;7.33;69.75;102661.38;4971075;28;20027;-78
2022/04/17 00:08:20;;;;;;;18.02;7.40;;;;;;;7.54;68.20;102670.63;4968413;28;20126;-78
2022/04/17 00:10:47;;;;;;;15.27;7.30;;;;;;;7.44;68.64;102665.53;4973192;28;20038;-79
2022/04/17 00:13:14;;;;;;;12.73;6.30;;;;;;;7.42;66.97;102657.41;4938316;29;20360;-80
2022/04/17 00:15:40;;;;;;;10.20;6.43;;;;;;;7.51;66.46;102651.66;4937521;29;20031;-79
2022/04/17 00:18:06;;;;;;;10.35;6.25;;;;;;;7.59;65.95;102664.09;4961802;28;20382;-78
2022/04/17 00:20:32;;;;;;;13.07;6.43;;;;;;;7.44;68.00;102658.25;4970656;28;20046;-79
2022/04/17 00:22:57;;;;;;;15.15;6.25;;;;;;;7.47;66.53;102669.03;4962936;28;20031;-79
2022/04/17 00:25:23;;;;;;;13.85;6.63;;;;;;;7.48;67.02;102667.22;4967980;28;20093;-78
2022/04/17 00:27:48;;;;;;;9.90;6.03;;;;;;;7.45;65.76;102665.50;4965126;28;20039;-79
2022/04/17 00:30:14;;;;;;;12.55;6.25;;;;;;;7.39;66.00;102652.09;4962349;28;20059;-79
2022/04/17 00:32:39;;;;;;;12.07;5.38;;;;;;;7.47;65.44;102652.69;4953567;28;20034;-79
2022/04/17 00:35:07;;;;;;;10.55;5.78;;;;;;;7.49;66.10;102658.09;4955324;28;20043;-78
2022/04/17 00:37:33;;;;;;;10.95;5.57;;;;;;;7.40;66.28;102662.06;4966507;28;20035;-78
2022/04/17 00:39:59;;;;;;;9.43;6.28;;;;;;;7.42;65.63;102660.16;4964704;28;20046;-79
2022/04/17 00:42:24;;;;;;;21.45;5.60;;;;;;;7.39;65.01;102653.94;4948459;28;20081;-80
2022/04/17 00:44:51;;;;;;;18.92;5.55;;;;;;;7.28;65.99;102643.41;4958354;28;20503;-79
2022/04/17 00:47:17;;;;;;;13.48;5.57;;;;;;;7.31;66.02;102649.66;4978171;28;20035;-79
2022/04/17 00:49:43;;;;;;;10.63;5.30;;;;;;;7.29;65.65;102653.38;4961105;28;20043;-79
2022/04/17 00:52:09;;;;;;;8.73;4.95;;;;;;;7.32;65.57;102653.25;4962785;28;20034;-79
2022/04/17 00:54:44;;;;;;;9.68;4.63;;;;;;;7.32;65.44;102643.25;4978218;28;20062;-79
2022/04/17 00:57:12;;;;;;;9.35;5.18;;;;;;;7.28;65.72;102654.31;4964505;28;20074;-79
2022/04/17 00:59:41;;;;;;;9.30;4.85;;;;;;;7.18;66.08;102653.75;4963430;28;20053;-80
2022/04/17 01:02:07;;;;;;;8.35;4.63;;;;;;;7.20;66.68;102650.97;4955404;28;20130;-79
2022/04/17 01:04:32;;;;;;;6.90;4.57;;;;;;;7.17;66.14;102641.97;4962408;28;20039;-79
2022/04/17 01:06:58;;;;;;;9.55;5.28;;;;;;;7.09;66.07;102645.94;4952960;28;20125;-81
2022/04/17 01:09:23;;;;;;;7.38;4.22;;;;;;;7.06;67.04;102646.03;4944146;29;20066;-80
2022/04/17 01:11:51;;;;;;;10.05;4.80;;;;;;;6.97;67.03;102647.25;4966944;28;20457;-80
2022/04/17 01:14:17;;;;;;;7.07;4.68;;;;;;;6.99;67.59;102648.09;4969302;28;20035;-80
2022/04/17 01:16:43;;;;;;;11.38;4.78;;;;;;;6.82;68.06;102640.47;4957728;29;20059;-80
2022/04/17 01:19:12;;;;;;;11.68;4.18;;;;;;;6.87;68.13;102649.41;4978413;28;20039;-80
2022/04/17 01:21:43;;;;;;;9.45;4.47;;;;;;;6.83;68.53;102649.56;4948272;29;20039;-80
2022/04/17 01:26:56;;;;;;;7.03;4.20;;;;;;;6.78;69.10;102655.16;4973180;28;20035;-79
2022/04/17 01:29:32;;;;;;;8.57;4.55;;;;;;;6.72;71.25;102653.53;4966645;28;20451;-79
2022/04/17 01:31:59;;;;;;;9.07;4.80;;;;;;;6.67;71.57;102654.63;4959330;29;20031;-79
2022/04/17 01:34:24;;;;;;;11.02;4.70;;;;;;;6.55;71.23;102653.22;4976107;28;20085;-79
2022/04/17 01:36:50;;;;;;;7.57;4.20;;;;;;;6.48;74.41;102648.88;4971679;28;20489;-79
2022/04/17 01:39:18;;;;;;;7.90;4.65;;;;;;;6.51;72.82;102643.34;4970589;28;20035;-79
2022/04/17 01:41:44;;;;;;;8.13;4.30;;;;;;;6.35;75.77;102645.72;4965059;28;20063;-79
2022/04/17 01:44:10;;;;;;;13.13;6.28;;;;;;;6.38;76.50;102648.34;4960561;28;20031;-79
2022/04/17 01:46:36;;;;;;;14.68;6.82;;;;;;;6.26;75.68;102646.88;4955708;28;20045;-79
2022/04/17 01:49:02;;;;;;;15.63;7.68;;;;;;;6.35;73.73;102645.72;4976097;28;20043;-79
2022/04/17 01:51:27;;;;;;;15.88;8.57;;;;;;;6.30;73.63;102640.41;4951120;28;20079;-81
2022/04/17 01:53:53;;;;;;;26.55;12.40;;;;;;;6.24;72.94;102646.03;4963924;28;20467;-79
2022/04/17 01:56:18;;;;;;;27.55;12.95;;;;;;;6.24;72.52;102643.31;4960940;28;20038;-79
2022/04/17 01:58:44;;;;;;;33.33;14.13;;;;;;;6.20;72.11;102639.81;4961940;28;20499;-79
2022/04/17 02:01:22;;;;;;;15.60;7.38;;;;;;;6.17;72.42;102637.19;4959877;28;20063;-78
2022/04/17 02:03:47;;;;;;;13.70;6.07;;;;;;;6.12;73.12;102630.13;4964736;28;20039;-80
2022/04/17 02:06:13;;;;;;;10.13;5.30;;;;;;;6.09;72.58;102628.38;4961785;28;20040;-80
2022/04/17 02:08:38;;;;;;;9.52;4.20;;;;;;;6.18;71.38;102627.19;4958739;28;20019;-80
2022/04/17 02:11:04;;;;;;;8.50;4.80;;;;;;;6.15;72.80;102620.03;4967894;28;20062;-77
2022/04/17 02:13:30;;;;;;;9.77;5.40;;;;;;;6.22;73.42;102634.31;4976512;28;20142;-79
2022/04/17 02:15:57;;;;;;;18.27;6.10;;;;;;;6.24;72.95;102630.59;4950180;29;20427;-78
2022/04/17 02:18:25;;;;;;;21.40;5.30;;;;;;;6.18;71.31;102635.34;4967983;28;20133;-80
2022/04/17 02:20:52;;;;;;;13.20;5.40;;;;;;;6.15;73.07;102621.84;4965811;28;20046;-79
2022/04/17 02:23:17;;;;;;;7.57;3.88;;;;;;;6.07;72.51;102633.00;4973238;28;20039;-80
2022/04/17 02:25:43;;;;;;;10.18;4.43;;;;;;;6.10;73.79;102626.53;4975370;28;20042;-79
2022/04/17 02:28:08;;;;;;;10.32;4.65;;;;;;;6.13;73.19;102631.88;4954421;28;20030;-79
2022/04/17 02:30:34;;;;;;;10.27;5.28;;;;;;;6.13;72.46;102626.44;4953823;28;20131;-79
2022/04/17 02:33:00;;;;;;;8.45;4.55;;;;;;;6.02;72.74;102630.41;4954554;28;20034;-80
2022/04/17 02:35:25;;;;;;;11.05;4.32;;;;;;;6.07;73.22;102622.13;4960366;28;20051;-80
2022/04/17 02:37:50;;;;;;;14.60;6.13;;;;;;;6.14;73.39;102623.69;4958849;28;20547;-80
2022/04/17 02:40:16;;;;;;;10.35;4.68;;;;;;;6.11;73.12;102626.50;4935452;29;20039;-80
2022/04/17 02:42:45;;;;;;;9.35;4.80;;;;;;;6.07;73.73;102628.44;4969694;28;20545;-80
2022/04/17 02:45:10;;;;;;;12.40;4.85;;;;;;;6.02;72.56;102627.69;4965478;28;20176;-80
2022/04/17 02:47:50;;;;;;;12.27;4.88;;;;;;;6.09;74.05;102635.66;4967135;28;20039;-80
2022/04/17 02:50:18;;;;;;;12.00;4.65;;;;;;;5.88;74.63;102627.19;4956413;28;20071;-80
2022/04/17 02:52:45;;;;;;;9.90;4.20;;;;;;;5.86;73.40;102619.06;4966348;28;20367;-80
2022/04/17 02:55:10;;;;;;;9.40;4.10;;;;;;;5.84;74.32;102615.53;4962735;28;20035;-80
2022/04/17 02:57:36;;;;;;;13.77;3.70;;;;;;;5.86;75.78;102624.50;4966403;28;20101;-79
2022/04/17 03:00:07;;;;;;;8.05;4.20;;;;;;;5.74;76.82;102619.47;4961828;28;20070;-80
2022/04/17 03:05:37;;;;;;;14.35;5.15;;;;;;;5.77;75.73;102611.22;4971493;28;20055;-80
2022/04/17 03:08:07;;;;;;;11.27;5.20;;;;;;;5.81;75.62;102614.75;4962473;28;20066;-79
2022/04/17 03:10:35;;;;;;;5.97;3.20;;;;;;;5.73;77.26;102616.81;4959674;28;20070;-80
2022/04/17 03:13:00;;;;;;;6.43;3.33;;;;;;;5.68;77.05;102620.53;4971278;28;20130;-79
2022/04/17 03:15:26;;;;;;;6.30;3.47;;;;;;;5.49;79.96;102609.34;4951539;28;20047;-80
2022/04/17 03:17:52;;;;;;;5.22;3.58;;;;;;;5.46;80.87;102614.84;4963970;28;20039;-79
2022/04/17 03:20:18;;;;;;;6.78;4.03;;;;;;;5.43;82.92;102605.91;4969455;28;20071;-79
2022/04/17 03:22:44;;;;;;;8.15;4.82;;;;;;;5.36;80.85;102607.00;4942579;28;20071;-80
2022/04/17 03:25:10;;;;;;;16.58;3.75;;;;;;;5.58;79.01;102607.28;4947787;28;20157;-78
2022/04/17 03:27:36;;;;;;;9.13;4.88;;;;;;;5.56;78.05;102612.75;4970594;28;20039;-78
2022/04/17 03:30:03;;;;;;;9.10;4.93;;;;;;;5.54;80.39;102601.03;4958703;28;20471;-79
2022/04/17 03:32:28;;;;;;;8.75;4.32;;;;;;;5.44;79.51;102603.13;4932201;28;20058;-78
2022/04/17 03:34:54;;;;;;;7.78;3.72;;;;;;;5.44;80.47;102596.81;4953708;28;20043;-79
2022/04/17 03:37:19;;;;;;;8.65;3.70;;;;;;;5.40;82.55;102606.00;4945496;28;20127;-78
2022/04/17 03:39:46;;;;;;;10.30;3.85;;;;;;;5.23;82.13;102606.47;4961615;28;20475;-79
2022/04/17 03:42:12;;;;;;;6.47;4.03;;;;;;;5.06;85.84;102602.41;4974962;28;20134;-79
2022/04/17 03:44:38;;;;;;;7.88;3.90;;;;;;;4.92;88.31;102607.31;4976668;28;20062;-79
2022/04/17 03:47:06;;;;;;;7.90;4.03;;;;;;;4.90;87.68;102609.19;4942660;29;20035;-80
2022/04/17 03:49:32;;;;;;;6.72;3.60;;;;;;;4.93;87.66;102596.41;4935919;29;20043;-80
2022/04/17 03:51:57;;;;;;;8.88;3.63;;;;;;;4.97;87.70;102598.13;4924098;28;20035;-80
2022/04/17 03:54:24;;;;;;;7.00;3.88;;;;;;;5.02;85.48;102599.81;4951531;29;20043;-80
2022/04/17 03:56:49;;;;;;;5.75;3.47;;;;;;;4.97;84.49;102592.69;4965555;28;20475;-79
2022/04/17 03:59:15;;;;;;;6.32;3.75;;;;;;;4.87;85.50;102593.88;4983610;28;20110;-79
2022/04/17 04:01:40;;;;;;;8.52;3.75;;;;;;;4.72;86.06;102575.28;4956926;28;20133;-79
2022/04/17 04:04:06;;;;;;;8.25;4.35;;;;;;;4.76;87.29;102593.28;4954895;28;20072;-79
2022/04/17 04:06:33;;;;;;;11.00;4.00;;;;;;;4.49;91.80;102589.47;4960601;28;20050;-80
2022/04/17 04:08:58;;;;;;;6.80;4.07;;;;;;;4.41;92.91;102589.66;4973518;28;20046;-80
2022/04/17 04:11:24;;;;;;;7.82;4.40;;;;;;;4.15;94.13;102553.25;4977488;28;20121;-80
2022/04/17 04:13:49;;;;;;;8.00;4.30;;;;;;;4.29;93.47;102588.13;4931158;28;20062;-79
2022/04/17 04:16:15;;;;;;;6.95;4.07;;;;;;;4.24;93.16;102592.78;4970526;28;20077;-78
2022/04/17 04:18:40;;;;;;;9.63;4.07;;;;;;;4.09;95.18;102579.63;4944693;28;20039;-79
2022/04/17 04:21:05;;;;;;;8.82;4.65;;;;;;;4.08;96.55;102591.38;4965165;28;20034;-79
2022/04/17 04:23:32;;;;;;;9.15;4.13;;;;;;;4.02;96.50;102578.88;4987986;28;20046;-80
2022/04/17 04:25:58;;;;;;;9.00;4.50;;;;;;;4.00;96.51;102578.91;4962044;28;20046;-79
2022/04/17 04:28:36;;;;;;;9.25;4.53;;;;;;;3.95;98.46;102583.56;4932142;28;20172;-79
2022/04/17 04:31:05;;;;;;;8.13;5.18;;;;;;;3.84;100.00;102581.06;4970498;28;20070;-79
2022/04/17 04:33:35;;;;;;;6.40;4.35;;;;;;;3.88;100.00;102578.31;4987442;28;20034;-80
2022/04/17 04:36:04;;;;;;;10.45;4.82;;;;;;;3.89;100.00;102571.94;4963339;28;20038;-79
2022/04/17 04:38:31;;;;;;;15.93;4.72;;;;;;;3.97;99.88;102578.09;4985175;28;20039;-80
2022/04/17 04:40:56;;;;;;;12.85;4.78;;;;;;;3.89;100.00;102580.97;4961699;28;20071;-79
2022/04/17 04:43:23;;;;;;;8.43;4.53;;;;;;;3.92;99.54;102577.28;4971171;28;20034;-79
2022/04/17 04:46:07;;;;;;;11.98;4.68;;;;;;;3.94;100.00;102575.47;4962812;28;20113;-78
2022/04/17 04:51:25;;;;;;;9.15;4.80;;;;;;;3.86;99.36;102568.38;4964914;28;20038;-79
2022/04/17 04:53:52;;;;;;;7.55;4.20;;;;;;;3.99;97.02;102571.69;4993766;28;20040;-78
2022/04/17 04:56:18;;;;;;;7.95;4.57;;;;;;;3.89;98.36;102575.56;4996614;28;20062;-77
2022/04/17 04:58:44;;;;;;;10.50;5.15;;;;;;;3.80;99.27;102578.47;4967401;28;20047;-80
2022/04/17 05:01:11;;;;;;;8.32;5.03;;;;;;;3.81;98.68;102566.72;4977520;28;20031;-78
2022/04/17 05:03:36;;;;;;;9.50;5.55;;;;;;;3.80;99.89;102581.19;4955359;28;20054;-78
2022/04/17 05:06:02;;;;;;;8.65;4.50;;;;;;;3.83;100.00;102576.56;4974167;28;20054;-78
2022/04/17 05:08:28;;;;;;;16.27;5.30;;;;;;;3.97;100.00;102568.13;4959755;29;20036;-79
2022/04/17 05:10:53;;;;;;;8.52;5.60;;;;;;;3.87;100.00;102563.88;4962731;28;20031;-78
2022/04/17 05:13:19;;;;;;;10.55;4.90;;;;;;;3.93;100.00;102569.13;4961861;28;20106;-78
2022/04/17 05:15:45;;;;;;;11.85;5.03;;;;;;;4.00;100.00;102557.22;4971187;28;20118;-78
2022/04/17 05:18:10;;;;;;;9.18;5.65;;;;;;;4.00;100.00;102557.22;4959413;28;20050;-79
2022/04/17 05:20:36;;;;;;;8.10;5.20;;;;;;;4.11;100.00;102559.66;4962475;28;20070;-78
2022/04/17 05:23:29;;;;;;;9.25;4.72;;;;;;;4.23;98.71;102559.38;4965542;28;20086;-79
2022/04/17 05:25:57;;;;;;;9.45;5.47;;;;;;;4.33;98.70;102560.03;4965668;28;20085;-79
2022/04/17 05:28:23;;;;;;;17.15;4.90;;;;;;;4.48;95.80;102557.88;4958373;28;20491;-79
2022/04/17 05:30:49;;;;;;;5.47;4.32;;;;;;;4.62;94.94;102560.19;4976190;28;20043;-80
2022/04/17 05:33:19;;;;;;;9.85;4.82;;;;;;;4.78;95.30;102564.28;4967037;28;20039;-79
2022/04/17 05:35:46;;;;;;;5.50;3.60;;;;;;;4.95;93.07;102564.72;4968499;28;20042;-79
2022/04/17 05:38:11;;;;;;;9.43;4.20;;;;;;;5.13;91.57;102565.09;4965949;29;20043;-79
2022/04/17 05:40:46;;;;;;;4.28;3.65;;;;;;;5.39;91.05;102561.63;4979820;28;20058;-78
2022/04/17 05:43:12;;;;;;;5.22;3.58;;;;;;;5.67;87.57;102564.41;4966119;29;20068;-80
2022/04/17 05:45:39;;;;;;;9.23;4.05;;;;;;;5.77;85.70;102555.97;4977038;28;20059;-80
2022/04/17 05:48:11;;;;;;;10.73;4.00;;;;;;;6.06;84.34;102565.94;4962167;28;20035;-79
2022/04/17 05:50:37;;;;;;;10.25;3.88;;;;;;;6.36;82.14;102561.31;4969603;28;20047;-79
2022/04/17 05:53:03;;;;;;;5.30;3.55;;;;;;;6.51;83.12;102565.34;4972897;28;20534;-80
2022/04/17 05:55:29;;;;;;;5.75;3.88;;;;;;;6.81;81.58;102548.88;4980156;28;20077;-78
2022/04/17 05:57:54;;;;;;;8.57;3.63;;;;;;;7.06;80.24;102556.16;4946225;28;20066;-77
2022/04/17 06:00:20;;;;;;;7.25;3.45;;;;;;;7.29;80.12;102560.75;4974657;28;20038;-78
2022/04/17 06:02:46;;;;;;;5.40;3.88;;;;;;;7.44;78.58;102564.72;4968387;28;20487;-78
2022/04/17 06:05:13;;;;;;;9.15;3.95;;;;;;;7.51;77.72;102558.97;4969293;28;20035;-78
2022/04/17 06:07:39;;;;;;;6.70;3.80;;;;;;;7.92;75.54;102563.75;4965792;28;20031;-78
2022/04/17 06:10:09;;;;;;;7.43;3.47;;;;;;;7.94;74.09;102570.03;4979560;28;20031;-78
2022/04/17 06:12:35;;;;;;;6.20;3.30;;;;;;;8.15;74.13;102560.06;4974343;28;20035;-79
2022/04/17 06:15:01;;;;;;;6.25;3.83;;;;;;;8.10;75.53;102573.03;4965092;28;20459;-79
2022/04/17 06:17:26;;;;;;;5.00;3.35;;;;;;;8.36;73.03;102568.28;4974609;28;20047;-79
2022/04/17 06:19:51;;;;;;;7.40;3.67;;;;;;;8.31;73.55;102564.88;4961962;29;20066;-78
2022/04/17 06:22:20;;;;;;;4.68;3.28;;;;;;;8.42;71.73;102563.47;4959781;28;20044;-78
2022/04/17 06:24:45;;;;;;;5.65;3.28;;;;;;;8.46;71.38;102561.53;4980521;28;20197;-78
2022/04/17 06:27:11;;;;;;;5.65;3.92;;;;;;;8.76;70.67;102563.91;4957502;28;20051;-77
2022/04/17 06:29:36;;;;;;;4.90;3.72;;;;;;;8.67;70.88;102570.63;4961934;28;20039;-78
2022/04/17 06:32:02;;;;;;;5.25;3.13;;;;;;;9.10;68.95;102570.56;4988805;28;20444;-77
2022/04/17 06:34:28;;;;;;;5.30;3.03;;;;;;;9.07;68.50;102573.44;4977258;28;20475;-79
2022/04/17 06:36:53;;;;;;;8.45;3.50;;;;;;;9.38;67.25;102570.22;4958306;29;20026;-80
2022/04/17 06:39:21;;;;;;;6.53;3.50;;;;;;;9.61;66.01;102569.13;4961288;28;20043;-79
2022/04/17 06:41:49;;;;;;;6.82;3.53;;;;;;;9.46;66.21;102543.41;4957720;28;20035;-82
2022/04/17 06:44:15;;;;;;;9.77;3.90;;;;;;;9.88;64.04;102555.94;4981563;28;20054;-82
2022/04/17 06:46:40;;;;;;;5.20;3.65;;;;;;;10.32;62.07;102560.22;4958421;28;20047;-81
2022/04/17 06:49:07;;;;;;;8.15;3.97;;;;;;;10.25;63.22;102564.22;4939311;29;20083;-78
2022/04/17 06:51:32;;;;;;;9.07;4.03;;;;;;;10.28;63.56;102556.72;4979786;28;20043;-79
2022/04/17 06:53:57;;;;;;;6.78;3.90;;;;;;;10.46;60.47;102560.41;4968043;28;20035;-79
2022/04/17 06:56:23;;;;;;;8.65;4.00;;;;;;;10.90;60.31;102555.44;4966523;29;20055;-80
2022/04/17 06:58:49;;;;;;;9.52;4.32;;;;;;;10.90;59.76;102569.13;4972768;28;20031;-79
2022/04/17 07:01:15;;;;;;;10.88;4.43;;;;;;;11.04;59.74;102556.47;4947497;28;20065;-81
2022/04/17 07:03:47;;;;;;;7.90;4.20;;;;;;;11.44;57.37;102561.63;4971003;28;20023;-81
2022/04/17 07:06:13;;;;;;;7.32;4.25;;;;;;;11.20;57.87;102556.53;4976101;28;20062;-82
2022/04/17 07:08:39;;;;;;;7.20;4.07;;;;;;;11.10;58.59;102555.25;4968554;28;20079;-80
2022/04/17 07:11:04;;;;;;;11.30;3.60;;;;;;;11.35;57.66;102552.06;4971003;28;20082;-82
2022/04/17 07:13:31;;;;;;;7.05;4.10;;;;;;;11.19;57.71;102557.47;4955655;28;20031;-81
2022/04/17 07:15:56;;;;;;;7.32;4.20;;;;;;;11.64;56.87;102549.56;4955485;28;20051;-82
2022/04/17 07:18:22;;;;;;;7.10;3.78;;;;;;;11.89;55.72;102551.78;4948180;28;20043;-83
2022/04/17 07:20:48;;;;;;;7.38;3.88;;;;;;;12.42;54.53;102548.75;4969655;28;20479;-80
2022/04/17 07:23:14;;;;;;;8.20;3.95;;;;;;;12.67;54.59;102546.31;4966248;28;20058;-80
2022/04/17 07:25:39;;;;;;;9.50;3.88;;;;;;;12.56;52.62;102545.16;4953011;28;20031;-80
2022/04/17 07:28:12;;;;;;;8.80;4.10;;;;;;;12.37;53.79;102549.03;4964011;28;20059;-80
2022/04/17 07:30:38;;;;;;;9.05;4.45;;;;;;;12.54;53.11;102537.00;4951819;29;20026;-80
2022/04/17 07:33:03;;;;;;;13.50;4.68;;;;;;;13.07;51.94;102534.69;4979265;28;20045;-80
2022/04/17 07:35:30;;;;;;;15.65;4.63;;;;;;;12.68;52.23;102533.44;4960252;28;20053;-79
2022/04/17 07:38:00;;;;;;;7.22;4.32;;;;;;;13.10;52.79;102539.09;4966824;28;20032;-80
2022/04/17 07:40:28;;;;;;;8.68;4.53;;;;;;;13.03;50.41;102530.38;4974500;28;20538;-83
2022/04/17 07:42:55;;;;;;;11.95;4.40;;;;;;;13.11;51.73;102521.63;4960472;28;20090;-81
2022/04/17 07:45:22;;;;;;;8.25;3.85;;;;;;;13.50;49.94;102537.50;4979456;28;20043;-81
2022/04/17 07:47:49;;;;;;;13.15;3.85;;;;;;;13.41;49.61;102522.47;4976546;28;20031;-80
2022/04/17 07:50:21;;;;;;;6.75;4.10;;;;;;;13.67;49.44;102533.63;4974632;28;20059;-82
2022/04/17 07:52:46;;;;;;;9.38;4.40;;;;;;;13.49;49.64;102532.97;4980489;28;20476;-81
2022/04/17 07:55:14;;;;;;;9.20;3.95;;;;;;;14.16;49.45;102527.63;4962453;28;20077;-84
2022/04/17 08:00:21;;;;;;;8.95;3.92;;;;;;;14.08;48.90;102541.03;4988828;28;20097;-83
2022/04/17 08:02:53;;;;;;;6.47;4.10;;;;;;;14.73;45.75;102527.50;4944961;28;20517;-82
2022/04/17 08:05:22;;;;;;;11.05;4.10;;;;;;;14.71;45.18;102524.88;4950254;28;20035;-80
2022/04/17 08:07:49;;;;;;;5.80;3.97;;;;;;;14.15;47.46;102522.25;4970581;28;20086;-82
2022/04/17 08:10:15;;;;;;;6.75;3.78;;;;;;;13.82;48.58;102519.84;4948896;28;20042;-80
2022/04/17 08:12:42;;;;;;;7.43;3.72;;;;;;;14.19;47.40;102517.41;4965865;28;20045;-83
2022/04/17 08:15:08;;;;;;;7.18;4.07;;;;;;;15.01;45.99;102510.75;4951973;28;20045;-82
2022/04/17 08:17:34;;;;;;;14.95;4.68;;;;;;;14.87;45.76;102506.25;4964218;28;20026;-82
2022/04/17 08:19:59;;;;;;;10.40;4.40;;;;;;;15.29;43.67;102508.78;4972124;28;20045;-83
2022/04/17 08:22:25;;;;;;;7.63;4.20;;;;;;;14.23;46.01;102521.69;4955335;28;20043;-83
2022/04/17 08:24:50;;;;;;;9.88;3.88;;;;;;;14.32;46.99;102513.69;4950211;28;20114;-79
2022/04/17 08:27:16;;;;;;;19.95;4.70;;;;;;;14.90;44.66;102505.13;4972767;28;20041;-80
2022/04/17 08:29:42;;;;;;;8.88;3.53;;;;;;;15.30;44.10;102509.66;4973265;28;20045;-80
2022/04/17 08:32:07;;;;;;;4.80;3.45;;;;;;;15.59;43.23;102500.13;4964400;28;20121;-79
2022/04/17 08:34:33;;;;;;;15.15;4.05;;;;;;;15.29;45.06;102499.63;4992917;28;20042;-79
2022/04/17 08:36:59;;;;;;;9.25;3.40;;;;;;;14.89;44.88;102495.97;4988168;28;20065;-81
2022/04/17 08:39:25;;;;;;;10.13;3.83;;;;;;;15.66;42.83;102492.28;4994729;28;20097;-80
2022/04/17 08:41:54;;;;;;;7.70;3.88;;;;;;;15.53;43.17;102496.94;4951489;28;20430;-80
2022/04/17 08:44:21;;;;;;;8.45;3.72;;;;;;;15.79;42.17;102495.03;4959826;28;20027;-80
2022/04/17 08:46:46;;;;;;;10.02;4.03;;;;;;;15.97;41.40;102495.50;4977573;28;20065;-81
2022/04/17 08:49:13;;;;;;;10.57;3.55;;;;;;;16.06;41.44;102493.94;4969513;28;20030;-80
2022/04/17 08:51:39;;;;;;;11.02;3.60;;;;;;;15.49;42.83;102489.88;4977518;28;20568;-81
2022/04/17 08:54:06;;;;;;;11.90;3.75;;;;;;;15.76;42.90;102487.84;4973694;28;20035;-80
2022/04/17 08:56:32;;;;;;;5.28;3.53;;;;;;;16.09;41.67;102496.47;4955903;28;20039;-80
2022/04/17 08:58:58;;;;;;;9.90;3.60;;;;;;;15.85;42.14;102489.03;4972027;28;20134;-80
2022/04/17 09:01:24;;;;;;;8.35;3.47;;;;;;;16.20;41.94;102490.09;4966861;28;20050;-79
2022/04/17 09:03:50;;;;;;;11.50;4.10;;;;;;;16.17;41.90;102477.41;4961934;28;20026;-80
2022/04/17 09:06:19;;;;;;;7.55;3.25;;;;;;;16.11;41.72;102489.81;4960700;28;20042;-81
2022/04/17 09:08:59;;;;;;;7.68;3.70;;;;;;;16.59;41.33;102486.13;5003849;28;20018;-81
2022/04/17 09:11:25;;;;;;;7.57;3.78;;;;;;;16.45;41.67;102476.16;4993516;28;20097;-80
2022/04/17 09:13:54;;;;;;;12.70;3.55;;;;;;;16.23;39.79;102479.69;4970263;28;20035;-81
2022/04/17 09:16:28;;;;;;;6.53;3.75;;;;;;;16.33;40.24;102477.09;4994985;28;20030;-81
2022/04/17 09:18:55;;;;;;;8.00;3.38;;;;;;;16.49;40.37;102471.25;4989488;28;20086;-81
2022/04/17 09:21:32;;;;;;;11.73;3.80;;;;;;;16.78;39.80;102471.72;5003147;28;20046;-81
2022/04/17 09:24:21;;;;;;;8.30;3.97;;;;;;;16.83;40.67;102471.34;5008256;28;20027;-81
2022/04/17 09:26:54;;;;;;;5.70;4.43;;;;;;;17.89;39.13;102471.03;4986857;28;20025;-80
2022/04/17 09:29:19;;;;;;;9.57;3.60;;;;;;;17.01;38.83;102463.50;4981456;28;20026;-82
2022/04/17 09:31:45;;;;;;;10.68;4.55;;;;;;;17.05;40.48;102459.47;4969971;28;20030;-81
2022/04/17 09:34:11;;;;;;;10.60;4.60;;;;;;;17.23;39.22;102457.97;4956587;28;20402;-83
2022/04/17 09:36:38;;;;;;;7.95;4.03;;;;;;;17.11;39.35;102452.56;4986166;28;20033;-82
2022/04/17 09:39:11;;;;;;;10.90;3.80;;;;;;;17.32;37.24;102449.94;4964125;28;20033;-82
2022/04/17 09:41:54;;;;;;;8.20;3.47;;;;;;;17.90;36.79;102439.50;4951994;28;20035;-81
2022/04/17 09:44:36;;;;;;;12.07;4.75;;;;;;;17.78;38.56;102446.94;4975991;28;20035;-82
2022/04/17 09:47:09;;;;;;;5.93;3.97;;;;;;;17.61;37.36;102448.38;4959983;28;20125;-82
2022/04/17 09:49:57;;;;;;;12.70;4.22;;;;;;;17.23;37.89;102441.38;4991242;28;20367;-82
2022/04/17 09:52:33;;;;;;;9.93;3.90;;;;;;;17.13;37.35;102431.16;4967616;28;20042;-81
2022/04/17 09:55:00;;;;;;;7.70;4.07;;;;;;;17.37;37.64;102434.69;5001094;28;20081;-81
2022/04/17 09:57:37;;;;;;;8.13;3.80;;;;;;;17.23;36.52;102427.53;4982476;28;20062;-81
2022/04/17 10:00:11;;;;;;;6.60;3.88;;;;;;;17.35;38.62;102431.16;4994664;28;20681;-81
2022/04/17 10:02:41;;;;;;;9.02;4.18;;;;;;;17.67;37.69;102422.03;4973498;28;20022;-81
2022/04/17 10:05:09;;;;;;;12.63;4.60;;;;;;;17.52;37.48;102420.56;4992392;28;20045;-81
2022/04/17 10:07:38;;;;;;;9.23;4.45;;;;;;;17.19;36.39;102414.06;4991386;28;20026;-81
2022/04/17 10:10:05;;;;;;;9.20;3.95;;;;;;;17.54;37.31;102413.00;4973895;28;20034;-81
2022/04/17 10:12:34;;;;;;;11.15;4.68;;;;;;;17.68;36.78;102398.88;4972857;28;20066;-81
2022/04/17 10:15:04;;;;;;;10.45;4.90;;;;;;;18.07;37.95;102402.06;4973402;28;20031;-81
2022/04/17 10:17:31;;;;;;;9.88;4.60;;;;;;;18.29;35.82;102391.84;4963353;28;20022;-82
2022/04/17 10:20:04;;;;;;;13.52;4.25;;;;;;;18.06;36.35;102386.41;4995122;28;20039;-81
2022/04/17 10:22:33;;;;;;;13.23;4.22;;;;;;;17.98;35.38;102384.31;4976478;28;20773;-81
2022/04/17 10:25:02;;;;;;;11.10;4.65;;;;;;;18.13;36.04;102375.69;4991169;28;20034;-80
2022/04/17 10:27:35;;;;;;;9.63;4.10;;;;;;;17.93;36.49;102374.63;4990726;28;20030;-80
2022/04/17 10:30:05;;;;;;;9.57;3.80;;;;;;;17.96;34.93;102366.94;4963927;28;20027;-82
2022/04/17 10:32:39;;;;;;;10.68;4.65;;;;;;;17.62;35.82;102371.69;4976239;28;20039;-82
2022/04/17 10:35:50;;;;;;;5.90;4.30;;;;;;;17.45;34.90;102368.47;4984047;28;20518;-81
2022/04/17 10:38:38;;;;;;;10.25;4.00;;;;;;;17.63;34.96;102365.16;4983325;28;20082;-80
2022/04/17 10:41:06;;;;;;;8.23;5.35;;;;;;;18.22;33.79;102354.56;4972969;28;20118;-80
2022/04/17 10:43:34;;;;;;;11.02;5.25;;;;;;;17.89;35.62;102360.19;4979867;28;20038;-81
2022/04/17 10:46:18;;;;;;;12.60;5.40;;;;;;;17.74;35.73;102344.81;4990865;28;20094;-81
2022/04/17 10:48:45;;;;;;;7.13;4.20;;;;;;;18.08;33.56;102344.72;4997286;28;20053;-80
2022/04/17 10:51:14;;;;;;;9.30;4.85;;;;;;;18.12;35.86;102344.31;4989293;28;20118;-80
2022/04/17 10:54:10;;;;;;;13.52;5.00;;;;;;;18.27;33.74;102336.53;4982163;28;20368;-79
2022/04/17 10:56:54;;;;;;;7.18;4.75;;;;;;;18.13;36.34;102328.53;4941731;28;20115;-79
2022/04/17 10:59:28;;;;;;;11.45;6.13;;;;;;;18.06;35.98;102330.09;4977391;28;20059;-79
2022/04/17 11:01:59;;;;;;;8.50;4.70;;;;;;;18.25;34.58;102321.03;4980584;28;20042;-79
2022/04/17 11:04:37;;;;;;;8.88;4.60;;;;;;;18.09;34.58;102321.53;4969250;28;20068;-79
2022/04/17 11:07:05;;;;;;;10.32;4.75;;;;;;;18.09;34.98;102319.63;4996051;28;20031;-80
2022/04/17 11:09:42;;;;;;;9.10;4.30;;;;;;;18.13;33.73;102314.69;4961040;28;20031;-80
2022/04/17 11:12:19;;;;;;;10.88;4.85;;;;;;;18.22;32.94;102312.97;4979690;28;20042;-80
2022/04/17 11:15:17;;;;;;;12.45;4.20;;;;;;;18.16;32.99;102308.88;4953720;28;20527;-80
2022/04/17 11:17:43;;;;;;;10.48;4.32;;;;;;;17.90;33.62;102303.72;4979748;28;20049;-82
2022/04/17 11:20:09;;;;;;;12.60;5.03;;;;;;;18.06;35.82;102306.03;4986522;28;20031;-80
2022/04/17 11:22:38;;;;;;;11.52;5.35;;;;;;;18.09;37.01;102294.69;4959034;28;20430;-80
2022/04/17 11:25:08;;;;;;;11.40;5.18;;;;;;;18.34;34.13;102284.19;4969124;28;20053;-81
2022/04/17 11:27:38;;;;;;;8.10;4.10;;;;;;;18.46;33.73;102294.19;4966630;28;20090;-82
2022/04/17 11:30:05;;;;;;;7.55;3.72;;;;;;;18.48;32.41;102303.25;4968543;28;20037;-82
2022/04/17 11:32:30;;;;;;;7.20;3.95;;;;;;;17.81;33.24;102298.97;4990701;28;20033;-81
2022/04/17 11:35:01;;;;;;;9.18;4.45;;;;;;;17.96;32.95;102292.09;4997372;28;20102;-81
2022/04/17 11:37:32;;;;;;;5.22;3.65;;;;;;;17.49;34.68;102283.22;4961599;28;20034;-81
2022/04/17 11:40:08;;;;;;;7.00;4.00;;;;;;;17.90;33.62;102280.69;4972047;28;20046;-81
2022/04/17 11:42:44;;;;;;;6.57;4.35;;;;;;;17.83;35.00;102286.72;4978908;28;20042;-80